createdAt,value
2023-12-05T00:00:20.203Z,1.50
2023-12-05T00:02:48.822Z,1.50
2023-12-05T00:05:19.038Z,1.50
2023-12-05T00:07:47.714Z,1.50
2023-12-05T00:10:16.577Z,1.50
2023-12-05T00:12:45.208Z,1.50
2023-12-05T00:15:15.317Z,1.50
2023-12-05T00:17:43.934Z,1.50
2023-12-05T00:20:13.627Z,1.50
2023-12-05T00:22:43.640Z,1.50
2023-12-05T00:25:13.992Z,1.50
2023-12-05T00:27:42.684Z,1.50
2023-12-05T00:30:11.955Z,1.50
2023-12-05T00:32:40.658Z,1.50
2023-12-05T00:35:09.805Z,1.50
2023-12-05T00:37:38.447Z,1.50
2023-12-05T00:40:09.900Z,1.50
2023-12-05T00:42:38.555Z,1.50
2023-12-05T00:45:08.113Z,1.60
2023-12-05T00:47:36.840Z,1.50
2023-12-05T00:50:06.233Z,1.50
2023-12-05T00:52:35.485Z,1.50
2023-12-05T00:55:04.431Z,1.60
2023-12-05T00:57:34.455Z,1.50
2023-12-05T01:00:05.495Z,1.50
2023-12-05T01:02:34.103Z,1.50
2023-12-05T01:05:03.769Z,1.50
2023-12-05T01:07:32.646Z,1.60
2023-12-05T01:10:01.418Z,1.60
2023-12-05T01:12:30.237Z,1.60
2023-12-05T01:15:00.217Z,1.50
2023-12-05T01:17:29.192Z,1.60
2023-12-05T01:19:57.949Z,1.60
2023-12-05T01:22:26.544Z,1.50
2023-12-05T01:24:56.425Z,1.60
2023-12-05T01:27:25.079Z,1.60
2023-12-05T01:29:56.485Z,1.60
2023-12-05T01:32:26.510Z,1.60
2023-12-05T01:34:55.298Z,1.60
2023-12-05T01:37:24.264Z,1.60
2023-12-05T01:39:53.055Z,1.60
2023-12-05T01:42:21.961Z,1.60
2023-12-05T01:44:50.589Z,1.60
2023-12-05T01:47:19.733Z,1.60
2023-12-05T01:49:49.949Z,1.60
2023-12-05T01:52:19.100Z,1.60
2023-12-05T01:54:48.020Z,1.70
2023-12-05T01:57:17.606Z,1.60
2023-12-05T01:59:46.221Z,1.60
2023-12-05T02:02:15.316Z,1.60
2023-12-05T02:04:45.461Z,1.70
2023-12-05T02:07:16.268Z,1.70
2023-12-05T02:09:46.067Z,1.70
2023-12-05T02:12:14.921Z,1.60
2023-12-05T02:14:44.498Z,1.70
2023-12-05T02:17:17.230Z,1.70
2023-12-05T02:19:59.313Z,1.70
2023-12-05T02:23:04.777Z,1.70
2023-12-05T02:25:46.794Z,1.70
2023-12-05T02:28:17.662Z,1.60
2023-12-05T02:30:46.349Z,1.60
2023-12-05T02:33:15.214Z,1.70
2023-12-05T02:35:44.273Z,1.70
2023-12-05T02:38:20.540Z,1.60
2023-12-05T02:40:58.950Z,1.60
2023-12-05T02:43:37.074Z,1.70
2023-12-05T02:46:10.173Z,1.60
2023-12-05T02:48:39.917Z,1.60
2023-12-05T02:51:08.832Z,1.70
2023-12-05T02:53:37.490Z,1.60
2023-12-05T02:56:07.675Z,1.70
2023-12-05T02:58:37.705Z,1.70
2023-12-05T03:01:06.673Z,1.70
2023-12-05T03:03:35.594Z,1.70
2023-12-05T03:06:04.412Z,1.70
2023-12-05T03:08:33.092Z,1.70
2023-12-05T03:11:07.110Z,1.70
2023-12-05T03:13:42.083Z,1.70
2023-12-05T03:16:11.511Z,1.70
2023-12-05T03:18:41.346Z,1.70
2023-12-05T03:21:10.529Z,1.70
2023-12-05T03:23:39.219Z,1.70
2023-12-05T03:26:09.076Z,1.70
2023-12-05T03:28:37.740Z,1.70
2023-12-05T03:31:08.245Z,1.70
2023-12-05T03:33:38.770Z,1.70
2023-12-05T03:36:08.253Z,1.70
2023-12-05T03:38:38.815Z,1.70
2023-12-05T03:41:07.866Z,1.70
2023-12-05T03:43:36.697Z,1.70
2023-12-05T03:46:07.029Z,1.70
2023-12-05T03:48:38.053Z,1.80
2023-12-05T03:51:07.393Z,1.80
2023-12-05T03:53:35.952Z,1.70
2023-12-05T03:56:04.855Z,1.70
2023-12-05T03:58:33.528Z,1.80
2023-12-05T04:01:02.147Z,1.70
2023-12-05T04:03:32.242Z,1.80
2023-12-05T04:06:00.953Z,1.70
2023-12-05T04:08:30.004Z,1.70
2023-12-05T04:10:58.579Z,1.80
2023-12-05T04:13:30.082Z,1.80
2023-12-05T04:15:59.362Z,1.80
2023-12-05T04:18:28.106Z,1.80
2023-12-05T04:20:58.119Z,1.80
2023-12-05T04:23:26.844Z,1.70
2023-12-05T04:25:55.532Z,1.70
2023-12-05T04:28:25.138Z,1.70
2023-12-05T04:30:56.692Z,1.80
2023-12-05T04:33:25.473Z,1.70
2023-12-05T04:35:54.316Z,1.80
2023-12-05T04:38:24.759Z,1.70
2023-12-05T04:40:53.409Z,1.80
2023-12-05T04:43:22.171Z,1.70
2023-12-05T04:45:51.119Z,1.70
2023-12-05T04:48:19.995Z,1.70
2023-12-05T04:50:48.646Z,1.70
2023-12-05T04:53:17.267Z,1.70
2023-12-05T04:55:47.371Z,1.70
2023-12-05T04:58:16.102Z,1.80
2023-12-05T05:00:44.790Z,1.70
2023-12-05T05:03:14.722Z,1.80
2023-12-05T05:05:43.606Z,1.80
2023-12-05T05:08:12.263Z,1.80
2023-12-05T05:10:40.920Z,1.80
2023-12-05T05:13:10.875Z,1.80
2023-12-05T05:15:39.568Z,1.80
2023-12-05T05:18:08.976Z,1.80
2023-12-05T05:20:37.783Z,1.80
2023-12-05T05:23:06.540Z,1.80
2023-12-05T05:25:35.541Z,1.80
2023-12-05T05:28:04.265Z,1.80
2023-12-05T05:30:34.202Z,1.80
2023-12-05T05:33:03.066Z,1.70
2023-12-05T05:35:31.701Z,1.80
2023-12-05T05:38:00.547Z,1.80
2023-12-05T05:40:29.481Z,1.80
2023-12-05T05:42:58.199Z,1.80
2023-12-05T05:45:27.793Z,1.80
2023-12-05T05:47:58.206Z,1.80
2023-12-05T05:50:26.891Z,1.80
2023-12-05T05:52:55.657Z,1.90
2023-12-05T05:55:26.140Z,1.80
2023-12-05T05:57:55.480Z,1.90
2023-12-05T06:00:24.548Z,1.90
2023-12-05T06:02:53.390Z,1.90
2023-12-05T06:05:26.025Z,1.90
2023-12-05T06:07:54.985Z,1.90
2023-12-05T06:10:24.836Z,1.90
2023-12-05T06:12:53.856Z,1.90
2023-12-05T06:15:22.672Z,1.90
2023-12-05T06:17:51.472Z,1.90
2023-12-05T06:20:20.444Z,1.90
2023-12-05T06:22:53.931Z,1.90
2023-12-05T06:25:22.661Z,1.90
2023-12-05T06:27:51.828Z,1.90
2023-12-05T06:30:27.135Z,1.90
2023-12-05T06:32:56.960Z,1.90
2023-12-05T06:35:25.829Z,1.90
2023-12-05T06:38:13.059Z,2.00
2023-12-05T06:40:50.055Z,1.90
2023-12-05T06:43:25.551Z,1.90
2023-12-05T06:45:54.768Z,1.90
2023-12-05T06:48:26.669Z,1.90
2023-12-05T06:50:58.108Z,2.00
2023-12-05T06:53:28.934Z,1.90
2023-12-05T06:55:58.659Z,1.90
2023-12-05T06:58:27.687Z,1.90
2023-12-05T07:00:56.739Z,1.90
2023-12-05T07:03:27.674Z,1.90
2023-12-05T07:05:59.363Z,1.90
2023-12-05T07:08:32.421Z,1.90
2023-12-05T07:11:02.746Z,2.00
2023-12-05T07:13:35.122Z,1.90
2023-12-05T07:16:07.097Z,1.90
2023-12-05T07:18:36.076Z,2.00
2023-12-05T07:21:05.406Z,1.90
2023-12-05T07:23:40.985Z,2.00
2023-12-05T07:26:11.180Z,2.00
2023-12-05T07:28:43.156Z,2.00
2023-12-05T07:31:13.262Z,2.00
2023-12-05T07:33:42.124Z,2.00
2023-12-05T07:36:12.700Z,2.00
2023-12-05T07:38:42.965Z,2.00
2023-12-05T07:41:20.832Z,2.00
2023-12-05T07:43:50.993Z,2.00
2023-12-05T07:46:24.353Z,2.00
2023-12-05T07:48:56.238Z,2.00
2023-12-05T07:51:27.588Z,2.00
2023-12-05T07:54:00.843Z,2.00
2023-12-05T07:56:32.441Z,2.00
2023-12-05T07:59:02.255Z,2.00
2023-12-05T08:01:34.394Z,2.00
2023-12-05T08:04:05.561Z,2.00
2023-12-05T08:06:35.163Z,1.90
2023-12-05T08:09:06.725Z,1.90
2023-12-05T08:11:37.304Z,1.90
2023-12-05T08:14:06.739Z,2.00
2023-12-05T08:16:35.866Z,1.90
2023-12-05T08:19:06.220Z,1.90
2023-12-05T08:21:38.598Z,2.00
2023-12-05T08:24:10.218Z,1.90
2023-12-05T08:26:39.956Z,2.00
2023-12-05T08:29:08.793Z,2.00
2023-12-05T08:31:37.536Z,2.00
2023-12-05T08:34:06.440Z,2.00
2023-12-05T08:36:35.548Z,2.00
2023-12-05T08:39:04.969Z,2.00
2023-12-05T08:41:35.083Z,2.00
2023-12-05T08:44:03.765Z,2.00
2023-12-05T08:46:34.160Z,2.00
2023-12-05T08:49:03.084Z,2.00
2023-12-05T08:51:31.991Z,2.00
2023-12-05T08:54:00.916Z,2.00
2023-12-05T08:56:29.811Z,2.00
2023-12-05T08:58:59.858Z,2.00
2023-12-05T09:01:29.713Z,2.00
2023-12-05T09:03:58.554Z,2.00
2023-12-05T09:06:27.530Z,2.00
2023-12-05T09:08:56.564Z,2.00
2023-12-05T09:11:28.837Z,2.00
2023-12-05T09:14:00.228Z,2.00
2023-12-05T09:16:34.248Z,2.00
2023-12-05T09:19:06.116Z,2.00
2023-12-05T09:21:35.696Z,2.00
2023-12-05T09:24:08.201Z,2.00
2023-12-05T09:26:40.513Z,2.00
2023-12-05T09:29:10.906Z,2.00
2023-12-05T09:31:39.609Z,2.00
2023-12-05T09:34:10.728Z,2.00
2023-12-05T09:36:39.649Z,1.90
2023-12-05T09:39:08.382Z,2.00
2023-12-05T09:41:49.058Z,2.00
2023-12-05T09:44:23.811Z,2.00
2023-12-05T09:46:54.477Z,2.00
2023-12-05T09:49:28.688Z,2.00
2023-12-05T09:51:59.665Z,2.00
2023-12-05T09:54:29.216Z,2.00
2023-12-05T09:56:59.200Z,2.00
2023-12-05T09:59:29.626Z,2.00
2023-12-05T10:02:02.996Z,2.00
2023-12-05T10:04:35.068Z,2.00
2023-12-05T10:07:05.749Z,2.00
2023-12-05T10:09:35.469Z,2.00
2023-12-05T10:12:05.377Z,2.00
2023-12-05T10:14:36.151Z,2.00
2023-12-05T10:17:05.705Z,2.00
2023-12-05T10:19:37.378Z,2.10
2023-12-05T10:22:06.750Z,2.10
2023-12-05T10:24:44.199Z,2.10
2023-12-05T10:27:13.343Z,2.10
2023-12-05T10:29:44.878Z,2.10
2023-12-05T10:32:14.797Z,2.10
2023-12-05T10:34:50.429Z,2.10
2023-12-05T10:37:23.875Z,2.10
2023-12-05T10:39:56.593Z,2.10
2023-12-05T10:42:28.004Z,2.20
2023-12-05T10:44:58.725Z,2.20
2023-12-05T10:47:29.014Z,2.30
2023-12-05T10:49:58.652Z,2.20
2023-12-05T10:52:27.620Z,2.20
2023-12-05T10:54:57.975Z,2.30
2023-12-05T10:57:34.670Z,2.30
2023-12-05T11:00:08.803Z,2.30
2023-12-05T11:02:40.419Z,2.30
2023-12-05T11:05:12.102Z,2.30
2023-12-05T11:07:41.791Z,2.30
2023-12-05T11:10:11.267Z,2.40
2023-12-05T11:12:41.917Z,2.30
2023-12-05T11:15:15.276Z,2.30
2023-12-05T11:17:49.607Z,2.30
2023-12-05T11:20:30.206Z,2.30
2023-12-05T11:23:18.301Z,2.30
2023-12-05T11:26:01.555Z,2.30
2023-12-05T11:28:50.574Z,2.30
2023-12-05T11:31:29.031Z,2.30
2023-12-05T11:34:33.495Z,2.30
2023-12-05T11:37:20.472Z,2.20
2023-12-05T11:39:49.502Z,2.20
2023-12-05T11:42:20.537Z,2.20
2023-12-05T11:44:49.630Z,2.20
2023-12-05T11:47:26.717Z,2.20
2023-12-05T11:49:58.229Z,2.20
2023-12-05T11:52:40.679Z,2.20
2023-12-05T11:55:14.402Z,2.20
2023-12-05T11:58:00.951Z,2.20
2023-12-05T12:00:31.265Z,2.20
2023-12-05T12:03:14.563Z,2.20
2023-12-05T12:05:44.010Z,2.20
2023-12-05T12:08:13.480Z,2.20
2023-12-05T12:10:45.289Z,2.20
2023-12-05T12:13:17.069Z,2.20
2023-12-05T12:15:49.078Z,2.20
2023-12-05T12:18:36.368Z,2.20
2023-12-05T12:21:10.270Z,2.10
2023-12-05T12:23:40.960Z,2.10
2023-12-05T12:26:12.820Z,2.10
2023-12-05T12:28:41.931Z,2.10
2023-12-05T12:31:27.896Z,2.00
2023-12-05T12:34:00.397Z,2.00
2023-12-05T12:36:29.279Z,2.10
2023-12-05T12:42:15.020Z,2.00
2023-12-05T12:44:49.529Z,2.00
2023-12-05T12:47:18.831Z,2.00
2023-12-05T12:50:06.486Z,2.10
2023-12-05T12:52:57.446Z,2.00
2023-12-05T12:55:44.391Z,2.00
2023-12-05T12:58:31.313Z,2.00
2023-12-05T13:01:28.612Z,2.00
2023-12-05T13:04:06.590Z,1.90
2023-12-05T13:06:41.323Z,1.90
2023-12-05T13:09:12.610Z,2.00
2023-12-05T13:11:44.706Z,1.90
2023-12-05T13:14:14.495Z,1.90
2023-12-05T13:16:44.251Z,1.90
2023-12-05T13:19:30.810Z,1.90
2023-12-05T13:22:01.429Z,2.00
2023-12-05T13:24:30.324Z,1.90
2023-12-05T13:27:00.008Z,2.00
2023-12-05T13:29:29.218Z,1.90
2023-12-05T13:31:57.998Z,1.80
2023-12-05T13:34:26.819Z,1.90
2023-12-05T13:36:55.775Z,1.90
2023-12-05T13:39:26.324Z,1.90
2023-12-05T13:41:55.027Z,1.90
2023-12-05T13:44:23.796Z,2.00
2023-12-05T13:46:53.838Z,2.00
2023-12-05T13:49:22.641Z,2.00
2023-12-05T13:51:51.446Z,1.90
2023-12-05T13:54:20.062Z,1.90
2023-12-05T13:56:50.101Z,1.90
2023-12-05T13:59:18.723Z,1.90
2023-12-05T14:01:48.360Z,1.90
2023-12-05T14:04:18.654Z,1.90
2023-12-05T14:06:47.466Z,1.90
2023-12-05T14:09:16.189Z,1.90
2023-12-05T14:11:45.324Z,1.90
2023-12-05T14:14:15.656Z,1.90
2023-12-05T14:16:44.432Z,1.90
2023-12-05T14:19:13.116Z,1.90
2023-12-05T14:21:41.943Z,1.90
2023-12-05T14:24:10.693Z,1.90
2023-12-05T14:26:39.294Z,1.80
2023-12-05T14:29:07.891Z,1.80
2023-12-05T14:31:37.820Z,1.80
2023-12-05T14:34:09.191Z,1.80
2023-12-05T14:36:38.172Z,1.80
2023-12-05T14:39:11.024Z,1.80
2023-12-05T14:41:40.132Z,1.80
2023-12-05T14:44:08.839Z,1.80
2023-12-05T14:46:39.730Z,1.80
2023-12-05T14:49:09.501Z,1.70
2023-12-05T14:51:38.159Z,1.70
2023-12-05T14:54:07.221Z,1.70
2023-12-05T14:56:35.941Z,1.60
2023-12-05T14:59:05.434Z,1.60
2023-12-05T15:01:34.236Z,1.70
2023-12-05T15:04:04.502Z,1.60
2023-12-05T15:06:33.330Z,1.60
2023-12-05T15:09:01.987Z,1.60
2023-12-05T15:11:32.823Z,1.60
2023-12-05T15:14:01.856Z,1.60
2023-12-05T15:16:30.523Z,1.60
2023-12-05T15:18:59.782Z,1.60
2023-12-05T15:21:30.699Z,1.60
2023-12-05T15:24:00.898Z,1.60
2023-12-05T15:26:29.660Z,1.50
2023-12-05T15:28:58.439Z,1.50
2023-12-05T15:31:27.197Z,1.50
2023-12-05T15:33:56.580Z,1.50
2023-12-05T15:36:25.744Z,1.40
2023-12-05T15:38:55.824Z,1.40
2023-12-05T15:41:24.403Z,1.50
2023-12-05T15:43:53.201Z,1.50
2023-12-05T15:46:23.200Z,1.40
2023-12-05T15:48:52.433Z,1.50
2023-12-05T15:51:21.199Z,1.40
2023-12-05T15:53:51.726Z,1.40
2023-12-05T15:56:21.900Z,1.40
2023-12-05T15:58:50.572Z,1.40
2023-12-05T16:01:19.256Z,1.40
2023-12-05T16:03:48.936Z,1.40
2023-12-05T16:06:17.718Z,1.40
2023-12-05T16:08:46.355Z,1.40
2023-12-05T16:11:16.380Z,1.40
2023-12-05T16:13:48.509Z,1.30
2023-12-05T16:16:17.328Z,1.30
2023-12-05T16:18:46.016Z,1.30
2023-12-05T16:21:14.700Z,1.40
2023-12-05T16:23:43.475Z,1.40
2023-12-05T16:26:12.278Z,1.40
2023-12-05T16:28:40.991Z,1.40
2023-12-05T16:31:11.187Z,1.40
2023-12-05T16:33:39.955Z,1.40
2023-12-05T16:36:10.536Z,1.30
2023-12-05T16:38:39.135Z,1.40
2023-12-05T16:41:08.025Z,1.30
2023-12-05T16:43:36.732Z,1.30
2023-12-05T16:46:05.932Z,1.30
2023-12-05T16:48:36.374Z,1.30
2023-12-05T16:51:05.576Z,1.20
2023-12-05T16:53:34.196Z,1.30
2023-12-05T16:56:03.128Z,1.30
2023-12-05T16:58:32.484Z,1.20
2023-12-05T17:01:01.257Z,1.20
2023-12-05T17:03:30.335Z,1.30
2023-12-05T17:06:01.682Z,1.20
2023-12-05T17:08:30.291Z,1.20
2023-12-05T17:11:03.501Z,1.20
2023-12-05T17:13:32.142Z,1.20
2023-12-05T17:16:00.819Z,1.20
2023-12-05T17:18:29.620Z,1.20
2023-12-05T17:20:58.432Z,1.20
2023-12-05T17:23:30.556Z,1.20
2023-12-05T17:25:59.129Z,1.20
2023-12-05T17:28:29.533Z,1.20
2023-12-05T17:30:58.257Z,1.20
2023-12-05T17:33:27.006Z,1.20
2023-12-05T17:35:56.073Z,1.10
2023-12-05T17:38:24.946Z,1.10
2023-12-05T17:40:55.007Z,1.10
2023-12-05T17:43:25.367Z,1.20
2023-12-05T17:45:56.926Z,1.20
2023-12-05T17:48:28.014Z,1.20
2023-12-05T17:50:56.993Z,1.10
2023-12-05T17:53:28.920Z,1.10
2023-12-05T17:55:59.724Z,1.10
2023-12-05T17:58:28.462Z,1.20
2023-12-05T18:00:57.395Z,1.10
2023-12-05T18:03:26.366Z,1.10
2023-12-05T18:05:55.440Z,1.10
2023-12-05T18:08:24.139Z,1.10
2023-12-05T18:10:52.792Z,1.20
2023-12-05T18:13:22.941Z,1.10
2023-12-05T18:15:51.740Z,1.10
2023-12-05T18:18:20.498Z,1.10
2023-12-05T18:20:49.202Z,1.10
2023-12-05T18:23:17.873Z,1.10
2023-12-05T18:25:46.546Z,1.10
2023-12-05T18:28:15.289Z,1.10
2023-12-05T18:30:45.421Z,1.10
2023-12-05T18:33:14.299Z,1.10
2023-12-05T18:35:43.500Z,1.10
2023-12-05T18:38:12.209Z,1.10
2023-12-05T18:40:40.990Z,1.10
2023-12-05T18:43:09.722Z,1.10
2023-12-05T18:45:38.576Z,1.10
2023-12-05T18:48:08.826Z,1.10
2023-12-05T18:50:38.073Z,1.10
2023-12-05T18:53:06.784Z,1.10
2023-12-05T18:55:35.609Z,1.10
2023-12-05T18:58:04.776Z,1.10
2023-12-05T19:00:36.073Z,1.10
2023-12-05T19:03:06.028Z,1.10
2023-12-05T19:05:36.385Z,1.10
2023-12-05T19:08:06.792Z,1.10
2023-12-05T19:10:35.855Z,1.10
2023-12-05T19:13:04.604Z,1.10
2023-12-05T19:15:33.538Z,1.10
2023-12-05T19:18:03.018Z,1.10
2023-12-05T19:20:31.816Z,1.10
2023-12-05T19:23:01.881Z,1.10
2023-12-05T19:25:30.737Z,1.10
2023-12-05T19:27:59.462Z,1.10
2023-12-05T19:30:28.573Z,1.10
2023-12-05T19:32:58.748Z,1.10
2023-12-05T19:35:30.202Z,1.10
2023-12-05T19:37:59.009Z,1.00
2023-12-05T19:40:30.093Z,1.10
2023-12-05T19:43:00.057Z,1.00
2023-12-05T19:45:29.398Z,1.00
2023-12-05T19:47:58.147Z,1.00
2023-12-05T19:50:26.931Z,1.00
2023-12-05T19:52:55.850Z,1.00
2023-12-05T19:55:24.801Z,1.00
2023-12-05T19:57:55.443Z,1.00
2023-12-05T20:00:24.061Z,1.00
2023-12-05T20:02:52.754Z,1.00
2023-12-05T20:05:21.531Z,1.00
2023-12-05T20:07:50.490Z,1.00
2023-12-05T20:10:19.153Z,1.00
2023-12-05T20:12:48.775Z,1.00
2023-12-05T20:15:18.869Z,1.10
2023-12-05T20:17:48.023Z,1.00
2023-12-05T20:20:16.718Z,1.10
2023-12-05T20:22:45.663Z,1.10
2023-12-05T20:25:14.399Z,1.10
2023-12-05T20:27:46.426Z,1.10
2023-12-05T20:30:15.205Z,1.10
2023-12-05T20:32:45.272Z,1.10
2023-12-05T20:35:14.040Z,1.10
2023-12-05T20:37:44.137Z,1.10
2023-12-05T20:40:14.003Z,1.10
2023-12-05T20:42:43.675Z,1.10
2023-12-05T20:45:14.239Z,1.10
2023-12-05T20:47:45.509Z,1.10
2023-12-05T20:50:14.294Z,1.10
2023-12-05T20:52:43.009Z,1.10
2023-12-05T20:55:11.900Z,1.10
2023-12-05T20:57:40.761Z,1.10
2023-12-05T21:00:10.959Z,1.00
2023-12-05T21:02:40.891Z,1.00
2023-12-05T21:05:11.222Z,1.00
2023-12-05T21:07:40.352Z,1.10
2023-12-05T21:10:09.783Z,1.00
2023-12-05T21:12:38.411Z,1.00
2023-12-05T21:15:08.513Z,1.00
2023-12-05T21:17:37.340Z,1.00
2023-12-05T21:20:11.395Z,1.00
2023-12-05T21:22:41.748Z,1.00
2023-12-05T21:25:11.208Z,1.00
2023-12-05T21:27:40.308Z,1.00
2023-12-05T21:30:10.364Z,1.00
2023-12-05T21:32:39.115Z,1.00
2023-12-05T21:35:08.614Z,1.00
2023-12-05T21:37:37.495Z,1.00
2023-12-05T21:40:08.916Z,1.00
2023-12-05T21:42:37.689Z,1.00
2023-12-05T21:45:07.414Z,1.00
2023-12-05T21:47:36.179Z,1.00
2023-12-05T21:50:05.303Z,1.00
2023-12-05T21:52:33.950Z,1.00
2023-12-05T21:55:02.719Z,1.00
2023-12-05T21:57:32.936Z,1.00
2023-12-05T22:00:01.606Z,1.00
2023-12-05T22:02:30.464Z,1.00
2023-12-05T22:04:59.137Z,1.00
2023-12-05T22:07:27.944Z,1.00
2023-12-05T22:09:56.737Z,1.00
2023-12-05T22:12:25.784Z,1.00
2023-12-05T22:14:57.304Z,1.10
2023-12-05T22:17:28.723Z,1.00
2023-12-05T22:19:57.774Z,1.10
2023-12-05T22:22:26.480Z,1.10
2023-12-05T22:24:55.253Z,1.10
2023-12-05T22:27:24.058Z,1.00
2023-12-05T22:29:54.272Z,1.00
2023-12-05T22:32:24.618Z,1.10
2023-12-05T22:34:53.991Z,1.10
2023-12-05T22:37:22.966Z,1.00
2023-12-05T22:39:52.226Z,1.10
2023-12-05T22:42:20.933Z,1.10
2023-12-05T22:44:49.667Z,1.00
2023-12-05T22:47:18.435Z,1.00
2023-12-05T22:49:48.806Z,1.10
2023-12-05T22:52:17.522Z,1.10
2023-12-05T22:54:46.265Z,1.00
2023-12-05T22:57:14.952Z,1.10
2023-12-05T22:59:43.980Z,1.10
2023-12-05T23:02:12.689Z,1.00
2023-12-05T23:04:41.355Z,1.10
2023-12-05T23:07:11.581Z,1.10
2023-12-05T23:09:42.091Z,1.00
2023-12-05T23:12:11.075Z,1.10
2023-12-05T23:14:39.756Z,1.10
2023-12-05T23:17:08.362Z,1.10
2023-12-05T23:19:37.115Z,1.10
2023-12-05T23:22:05.986Z,1.10
2023-12-05T23:24:36.008Z,1.10
2023-12-05T23:27:04.900Z,1.10
2023-12-05T23:29:33.525Z,1.10
2023-12-05T23:32:02.223Z,1.10
2023-12-05T23:34:30.942Z,1.10
2023-12-05T23:36:59.732Z,1.10
2023-12-05T23:39:28.447Z,1.20
2023-12-05T23:41:58.777Z,1.10
2023-12-05T23:44:27.476Z,1.20
2023-12-05T23:46:56.386Z,1.10
2023-12-05T23:49:25.315Z,1.20
2023-12-05T23:51:54.931Z,1.20
2023-12-05T23:54:23.699Z,1.20
2023-12-05T23:56:52.720Z,1.20
2023-12-05T23:59:22.802Z,1.20
